• Join FlightAware (Why Join?)
  • Login
  • US Flag 
12:18AM EDT


 

Airport Tracker/Info


-or-


 

Live Flight TrackerFlight Track Log ✈ QFA917 ✈ 18-Aug-2013 ✈ YPKA / KTA - YPPH / PER

Flight Track Log - Related Links

Times and Time Zones

All times are in EDT time to prevent confusion due to time zone crossing. See the QFA917 flight status page for this flight to view local times or setup timezone preferences in your user account.

Time Position Orientation Groundspeed Altitude Reporting Facility
EDT Latitude Longitude Course Direction KTS MPH feet Rate Location/Type
07:15AM -20.7130 116.7720 137° Southeast 105 121  Level FlightAware
07:15AM -20.7744 116.7848 11° North 16,500 1,560 Climbing Aus ATC (Calculated)
07:15AM -20.7110 116.7980 137° Southeast 156 180 800 -25,500 Descending FlightAware
07:16AM -20.7090 116.8140 82° East 156 180 800 2,160 Level FlightAware
07:16AM -20.7270 116.8140 180° South 167 192 2,000 2,220 Climbing FlightAware
07:16AM -20.8288 116.7950 16° North 16,500 900 Climbing Aus ATC (Calculated)
07:17AM -20.7570 116.8170 180° South 167 192 2,600 -18,900 Descending FlightAware
07:17AM -20.7820 116.8120 191° South 241 277 3,900 1,560 Climbing FlightAware
07:17AM -20.8080 116.8120 180° South 241 277 3,900 2,940 Level FlightAware
07:17AM -20.9240 116.8127 181° South 16,500 3,360 Climbing Aus ATC (Calculated)
07:18AM -20.9240 116.8127 181° South 16,500 -60 Level Aus ATC (Calculated)
07:19AM -21.0667 116.8394 198° South 16,500 -60 Level Aus ATC (Calculated)
07:20AM -21.2094 116.8661 316° Northwest 16,500 -60 Level Aus ATC (Calculated)
07:21AM -21.2263 116.8277 184° South  Level Estimated
07:21AM -21.1541 116.8086 184° South 351 404 16,400  Level Aus ATC (RADAR)
07:22AM -21.2053 116.8091 179° South 353 406 17,900 2,580 Climbing Aus ATC (RADAR)
07:22AM -21.2673 116.8082 181° South 366 421 19,200 2,460 Climbing Aus ATC (RADAR)
07:23AM -21.3223 116.8090 179° South 377 434 20,600 2,820 Climbing Aus ATC (RADAR)
07:23AM -21.3968 116.8088 180° South 384 442 22,500 2,700 Climbing Aus ATC (RADAR)
07:24AM -21.4623 116.8085 180° South 387 445 24,000 2,280 Climbing Aus ATC (RADAR)
07:25AM -21.5581 116.8067 181° South 399 459 25,800 1,980 Climbing Aus ATC (RADAR)
07:26AM -21.6770 116.8069 180° South 415 478 27,700 1,860 Climbing Aus ATC (RADAR)
07:26AM -21.7579 116.8063 180° South 422 486 28,900 1,560 Climbing Aus ATC (RADAR)
07:27AM -21.8297 116.8063 180° South 431 496 29,700 1,260 Climbing Aus ATC (RADAR)
07:28AM -21.9049 116.8055 181° South 446 513 30,400 1,320 Climbing Aus ATC (RADAR)
07:28AM -21.9811 116.8061 180° South 455 524 31,300 1,500 Climbing Aus ATC (RADAR)
07:29AM -22.0584 116.8055 180° South 461 531 32,200 1,620 Climbing Aus ATC (RADAR)
07:30AM -22.1695 116.8035 181° South 467 537 33,600 1,500 Climbing Aus ATC (RADAR)
07:31AM -22.3112 116.8042 180° South 462 532 35,100 1,260 Climbing Aus ATC (RADAR)
07:31AM -22.3788 116.8037 180° South 469 540 35,600 1,200 Climbing Aus ATC (RADAR)
07:32AM -22.4694 116.8029 180° South 477 549 36,500 1,260 Climbing Aus ATC (RADAR)
07:32AM -22.5484 116.8030 180° South 476 548 37,200 1,260 Climbing Aus ATC (RADAR)
07:33AM -22.6383 116.8030 180° South 474 545 38,100 1,200 Climbing Aus ATC (RADAR)
07:34AM -22.7180 116.8022 181° South 479 551 38,700 900 Climbing Aus ATC (RADAR)
07:34AM -22.7852 116.8018 180° South 476 548 39,100 720 Climbing Aus ATC (RADAR)
07:35AM -22.8876 116.8012 180° South 482 555 39,600 540 Climbing Aus ATC (RADAR)
07:36AM -23.0387 116.8007 180° South 490 564 40,100 240 Climbing Aus ATC (RADAR)
07:37AM -23.1324 116.8005 180° South 495 570 40,100  Level Aus ATC (RADAR)
07:37AM -23.2137 116.8002 180° South 493 567 40,100  Level Aus ATC (RADAR)
07:38AM -23.2828 116.7999 180° South 491 565 40,100  Level Aus ATC (RADAR)
07:38AM -23.3740 116.7991 180° South 487 560 40,100  Level Aus ATC (RADAR)
07:39AM -23.4556 116.7991 180° South 493 567 40,100  Level Aus ATC (RADAR)
07:40AM -23.5815 116.7987 180° South 487 560 40,100  Level Aus ATC (RADAR)
07:41AM -23.6958 116.7984 180° South 485 558 40,200 60 Climbing Aus ATC (RADAR)
07:41AM -23.7754 116.7979 180° South 485 558 40,200  Level Aus ATC (RADAR)
07:42AM -23.8673 116.7982 180° South 488 562 40,200  Level Aus ATC (RADAR)
07:42AM -23.9354 116.7979 180° South 486 559 40,200  Level Aus ATC (RADAR)
07:43AM -24.0150 116.7973 180° South 484 557 40,200 -120 Level Aus ATC (RADAR)
07:44AM -24.1056 116.7968 180° South 482 555 40,100 -720 Descending Aus ATC (RADAR)
07:44AM -24.1737 116.7960 181° South 486 559 39,400 -1,320 Descending Aus ATC (RADAR)
07:45AM -24.3115 116.7936 181° South 488 562 38,200 -660 Descending Aus ATC (RADAR)
07:46AM -24.4318 116.7900 182° South 470 541 38,200  Level Aus ATC (RADAR)
07:47AM -24.5190 116.7872 182° South 466 536 38,200  Level Aus ATC (RADAR)
07:47AM -24.5949 116.7846 182° South 464 534 38,200  Level Aus ATC (RADAR)
07:48AM -24.6608 116.7839 181° South 466 536 38,200 -120 Level Aus ATC (RADAR)
07:48AM -24.7476 116.7811 182° South 464 534 38,100 -660 Descending Aus ATC (RADAR)
07:49AM -24.8247 116.7807 180° South 469 540 37,400 -1,200 Descending Aus ATC (RADAR)
07:50AM -24.9240 116.7799 180° South 472 543 36,500 -1,200 Descending Aus ATC (RADAR)
07:50AM -24.9894 116.7769 182° South 471 542 35,900 -1,140 Descending Aus ATC (RADAR)
07:51AM -25.1328 116.7727 181° South 474 545 34,800 -900 Descending Aus ATC (RADAR)
07:52AM -25.2214 116.7713 181° South 474 545 34,400 -540 Descending Aus ATC (RADAR)
07:53AM -25.2875 116.7711 180° South 472 543 34,200 -180 Descending Aus ATC (RADAR)
07:53AM -25.3744 116.7682 182° South 467 537 34,200  Level Aus ATC (RADAR)
07:54AM -25.4512 116.7664 181° South 469 540 34,200  Level Aus ATC (RADAR)
07:54AM -25.5171 116.7645 182° South 469 540 34,200  Level Aus ATC (RADAR)
07:55AM -25.6267 116.7624 181° South 470 541 34,200  Level Aus ATC (RADAR)
07:56AM -25.7040 116.7627 180° South 472 543 34,200  Level Aus ATC (RADAR)
07:57AM -25.8552 116.7520 184° South 465 535 34,200  Level Aus ATC (RADAR)
07:57AM -25.9320 116.7520 180° South 468 539 34,200  Level Aus ATC (RADAR)
07:58AM -25.9975 116.7518 180° South 470 541 34,200  Level Aus ATC (RADAR)
08:03AM -26.6352 116.7354 182° South 34,000  Descending Aus ATC (Calculated)
08:05AM -26.8409 116.6836 193° South  Level FlightAware Approximate
08:05AM -26.8635 116.7294 182° South 34,000  Level Aus ATC (Calculated)
08:07AM -26.6315 116.7347 North  Level FlightAware Approximate
08:08AM -26.7592 116.7318 181° South  Level FlightAware Approximate
08:09AM -26.6956 116.7331 181° South  Level FlightAware Approximate
08:10AM -26.8233 116.7299 181° South  Level FlightAware Approximate
08:10AM -27.6207 116.7096 195° South 34,000  Level Aus ATC (Calculated)
08:11AM -27.6738 116.6940 181° South 490 564 34,200 60 Climbing Aus ATC (RADAR)
08:12AM -27.8061 116.6900 182° South 474 545 34,200  Level Aus ATC (RADAR)
08:12AM -27.8912 116.6757 188° South 467 537 34,200  Level Aus ATC (RADAR)
08:13AM -28.0189 116.6521 189° South 465 535 34,200  Level Aus ATC (RADAR)
08:14AM -28.1030 116.6318 192° South 460 529 34,200  Level Aus ATC (RADAR)
08:14AM -28.1672 116.6178 191° South 466 536 34,200  Level Aus ATC (RADAR)
08:15AM -28.2429 116.6063 188° South 468 539 34,200 -240 Level Aus ATC (RADAR)
08:15AM -28.2980 116.6120 187° South 470 541 34,000  Descending FlightAware
08:16AM -28.3392 116.5936 187° South 463 533 34,200  Climbing Aus ATC (RADAR)
08:16AM -28.3780 116.5990 188° South 470 541 34,000 -300 Descending FlightAware
08:17AM -28.4440 116.5880 188° South 470 541 34,000  Level FlightAware
08:17AM -28.5310 116.5730 189° South 469 540 34,000  Level FlightAware
08:18AM -28.6050 116.5610 189° South 469 540 34,000 300 Level FlightAware
08:18AM -28.6085 116.5501 189° South 467 537 34,200 360 Climbing Aus ATC (RADAR)
08:18AM -28.6733 116.5397 189° South 469 540 34,200 -360 Level Aus ATC (RADAR)
08:18AM -28.6820 116.5480 189° South 470 541 34,000 -360 Descending FlightAware
08:19AM -28.7560 116.5350 189° South 469 540 34,000 300 Level FlightAware
08:19AM -28.7590 116.5280 189° South 464 534 34,200 300 Climbing Aus ATC (RADAR)
08:20AM -28.8336 116.5147 189° South 457 526 34,200 -360 Level Aus ATC (RADAR)
08:20AM -28.8320 116.5230 189° South 469 540 34,000  Descending FlightAware
08:20AM -28.8981 116.5035 189° South 459 528 34,200  Climbing Aus ATC (RADAR)
08:20AM -28.9060 116.5100 189° South 470 541 34,000 120 Descending FlightAware
08:21AM -28.9845 116.4880 189° South 467 537 34,300  Climbing Aus ATC (RADAR)
08:21AM -28.9830 116.4970 189° South 470 541 34,000 -540 Descending FlightAware
08:21AM -29.0570 116.4840 189° South 470 541 34,000 480 Level FlightAware
08:21AM -29.0600 116.4788 189° South 463 533 34,300 480 Climbing Aus ATC (RADAR)
08:22AM -29.1350 116.4613 189° South 472 543 34,300 -540 Level Aus ATC (RADAR)
08:22AM -29.1330 116.4720 189° South 470 541 34,000  Descending FlightAware
08:22AM -29.2098 116.4503 189° South 462 532 34,300  Climbing Aus ATC (RADAR)
08:23AM -29.2180 116.4570 189° South 470 541 34,000  Descending FlightAware
08:23AM -29.2854 116.4381 189° South 463 533 34,300  Climbing Aus ATC (RADAR)
08:23AM -29.2840 116.4460 189° South 470 541 34,000 -540 Descending FlightAware
08:24AM -29.3580 116.4330 189° South 471 542 34,000 480 Level FlightAware
08:24AM -29.3609 116.4257 189° South 467 537 34,300 480 Climbing Aus ATC (RADAR)
08:24AM -29.4371 116.4145 189° South 472 543 34,300 -540 Level Aus ATC (RADAR)
08:24AM -29.4350 116.4200 189° South 473 544 34,000  Descending FlightAware
08:25AM -29.5128 116.4020 189° South 471 542 34,300  Climbing Aus ATC (RADAR)
08:25AM -29.5120 116.4070 189° South 475 547 34,000 -540 Descending FlightAware
08:25AM -29.5900 116.3930 189° South 468 539 34,000 420 Level FlightAware
08:25AM -29.5998 116.3869 189° South 471 542 34,300 480 Climbing Aus ATC (RADAR)
08:26AM -29.6653 116.3755 189° South 469 540 34,300 -600 Level Aus ATC (RADAR)
08:26AM -29.6640 116.3810 189° South 469 540 34,000  Descending FlightAware
08:26AM -29.7307 116.3656 189° South 470 541 34,300  Climbing Aus ATC (RADAR)
08:27AM -29.7320 116.3690 189° South 468 539 34,000  Descending FlightAware
08:27AM -29.8068 116.3520 189° South 470 541 34,300  Climbing Aus ATC (RADAR)
08:27AM -29.8180 116.3550 189° South 474 545 34,000  Descending FlightAware
08:28AM -29.8937 116.3370 189° South 473 544 34,300  Climbing Aus ATC (RADAR)
08:28AM -29.8950 116.3410 189° South 472 543 34,000 -540 Descending FlightAware
08:28AM -29.9710 116.3280 188° South 471 542 34,000 240 Level FlightAware
08:29AM -30.0441 116.3111 188° South 464 534 34,300  Climbing Aus ATC (RADAR)
08:29AM -30.0470 116.3150 188° South 468 539 34,000 -660 Descending FlightAware
08:30AM -30.1210 116.3020 189° South 458 527 33,900 -1,560 Descending FlightAware
08:30AM -30.1980 116.2880 189° South 469 540 32,200 -2,940 Descending FlightAware
08:31AM -30.2720 116.2750 189° South 475 547 30,500 -2,100 Descending FlightAware
08:31AM -30.3549 116.2576 189° South 464 534 29,700 -1,620 Descending Aus ATC (RADAR)
08:31AM -30.3560 116.2610 189° South 456 525 29,400 -1,920 Descending FlightAware
08:32AM -30.4265 116.2458 189° South 447 514 28,600 -2,160 Descending Aus ATC (RADAR)
08:32AM -30.4290 116.2490 189° South 442 509 28,200 -2,700 Descending FlightAware
08:33AM -30.5000 116.2370 189° South 423 487 26,900 -1,740 Descending FlightAware
08:33AM -30.5063 116.2319 189° South 433 498 27,100 -1,920 Climbing Aus ATC (RADAR)
08:33AM -30.5645 116.2213 189° South 423 487 25,900 -3,000 Descending Aus ATC (RADAR)
08:33AM -30.5670 116.2240 189° South 411 473 25,500 -2,400 Descending FlightAware
08:34AM -30.6305 116.2102 189° South 410 472 24,500 -2,340 Descending Aus ATC (RADAR)
08:34AM -30.6330 116.2130 189° South 406 467 24,100 -2,700 Descending FlightAware
08:34AM -30.6990 116.2010 189° South 390 449 22,800 -1,800 Descending FlightAware
08:34AM -30.7041 116.1976 189° South 400 460 23,000 -1,920 Climbing Aus ATC (RADAR)
08:35AM -30.7585 116.1884 189° South 397 457 21,800 -2,640 Descending Aus ATC (RADAR)
08:35AM -30.7730 116.1880 189° South 393 452 21,300 -2,460 Descending FlightAware
08:36AM -30.8360 116.1770 189° South 388 447 20,000 -1,860 Descending FlightAware
08:36AM -30.8390 116.1744 189° South 388 447 20,200 -2,280 Climbing Aus ATC (RADAR)
08:36AM -30.9060 116.1650 188° South 372 428 18,500 -2,400 Descending FlightAware
08:37AM -30.9590 116.1560 188° South 373 429 17,400 -2,160 Descending FlightAware
08:37AM -31.0170 116.1450 189° South 358 412 16,200 -2,100 Descending FlightAware
08:38AM -31.0860 116.1330 188° South 358 412 14,800 -2,040 Descending FlightAware
08:39AM -31.1430 116.1230 189° South 341 392 13,600 -2,040 Descending FlightAware
08:39AM -31.2060 116.1120 188° South 330 380 12,300 -1,980 Descending FlightAware
08:40AM -31.2540 116.1030 189° South 325 374 11,300 -1,800 Descending FlightAware
08:40AM -31.3080 116.0940 188° South 323 372 10,300 -1,620 Descending FlightAware
08:41AM -31.3390 116.0880 189° South 326 375 9,800 -1,320 Descending FlightAware
08:41AM -31.3620 116.0840 188° South 322 371 9,500 -1,680 Descending FlightAware
08:41AM -31.3930 116.0780 189° South 313 360 8,800 -1,980 Descending FlightAware
08:42AM -31.4160 116.0750 186° South 310 357 8,300 -1,860 Descending FlightAware
08:42AM -31.4380 116.0710 189° South 306 352 7,800 -2,100 Descending FlightAware
08:42AM -31.4690 116.0650 189° South 292 336 7,000 -1,980 Descending FlightAware
08:43AM -31.4980 116.0600 188° South 296 341 6,400 -1,860 Descending FlightAware
08:43AM -31.5270 116.0550 188° South 293 337 5,700 -1,740 Descending FlightAware
08:43AM -31.5590 116.0490 189° South 277 319 5,100 -1,080 Descending FlightAware
08:44AM -31.5780 116.0460 188° South 264 304 5,000 -480 Descending FlightAware
08:44AM -31.6050 116.0410 189° South 248 285 4,800 -540 Descending FlightAware
08:44AM -31.6310 116.0360 189° South 247 284 4,600 -660 Descending FlightAware
08:45AM -31.6500 116.0330 188° South 244 281 4,400 -720 Descending FlightAware
08:45AM -31.6810 116.0270 189° South 232 267 4,100 -600 Descending FlightAware
08:45AM -31.6940 116.0250 187° South 225 259 4,000 -480 Descending FlightAware
08:46AM -31.7210 116.0200 189° South 209 241 3,800 -660 Descending FlightAware
08:46AM -31.7320 116.0180 189° South 216 249 3,600 -1,140 Descending FlightAware
08:46AM -31.7530 116.0140 189° South 211 243 3,200 -1,140 Descending FlightAware
08:47AM -31.7740 116.0100 189° South 200 230 2,800 -1,080 Descending FlightAware
08:47AM -31.7900 116.0070 189° South 194 223 2,500 -1,080 Descending FlightAware
08:47AM -31.8110 116.0030 189° South 198 228 2,100 -1,080 Descending FlightAware
08:48AM -31.8330 115.9960 195° South 184 212 1,700 -1,080 Descending FlightAware
08:48AM -31.8490 115.9920 192° South 171 197 1,300 -1,020 Descending FlightAware
08:48AM -31.8550 115.9900 196° South 163 188 1,200 -780 Descending FlightAware
08:49AM -31.8710 115.9850 195° South 147 169 900 -840 Descending FlightAware
08:49AM -31.8840 115.9810 195° South 132 152 600 -720 Descending FlightAware
08:49AM -31.8960 115.9780 192° South 138 159 400 -780 Descending FlightAware
08:50AM -31.9110 115.9740 193° South 134 154 100 -900 Descending FlightAware
08:50AM -31.9240 115.9700 195° South 136 157 -300 Descending FlightAware
08:50AM -31.9370 115.9660 195° South 125 144  Level FlightAware